sensor_id;sensor_type;location;lat;lon;timestamp;P1;durP1;ratioP1;P2;durP2;ratioP2
40755;SDS011;26461;45.630;9.418;2023-03-01T00:00:48;16.42;;;9.60;;
40755;SDS011;26461;45.630;9.418;2023-03-01T00:03:59;27.08;;;15.40;;
40755;SDS011;26461;45.630;9.418;2023-03-01T00:07:08;21.08;;;15.95;;
40755;SDS011;26461;45.630;9.418;2023-03-01T00:10:18;16.92;;;12.10;;
40755;SDS011;26461;45.630;9.418;2023-03-01T00:13:28;18.65;;;13.27;;
40755;SDS011;26461;45.630;9.418;2023-03-01T00:16:39;19.25;;;15.95;;
40755;SDS011;26461;45.630;9.418;2023-03-01T00:19:53;20.08;;;16.15;;
40755;SDS011;26461;45.630;9.418;2023-03-01T00:23:03;17.67;;;13.23;;
40755;SDS011;26461;45.630;9.418;2023-03-01T00:26:13;19.25;;;15.18;;
40755;SDS011;26461;45.630;9.418;2023-03-01T00:29:24;16.40;;;11.48;;
40755;SDS011;26461;45.630;9.418;2023-03-01T00:32:34;21.73;;;12.70;;
40755;SDS011;26461;45.630;9.418;2023-03-01T00:35:44;14.45;;;12.30;;
40755;SDS011;26461;45.630;9.418;2023-03-01T00:38:54;21.25;;;11.07;;
40755;SDS011;26461;45.630;9.418;2023-03-01T00:42:04;25.65;;;13.35;;
40755;SDS011;26461;45.630;9.418;2023-03-01T00:45:14;25.70;;;11.73;;
40755;SDS011;26461;45.630;9.418;2023-03-01T00:48:25;14.48;;;7.78;;
40755;SDS011;26461;45.630;9.418;2023-03-01T00:51:35;25.30;;;9.15;;
40755;SDS011;26461;45.630;9.418;2023-03-01T00:54:45;26.20;;;12.60;;
40755;SDS011;26461;45.630;9.418;2023-03-01T00:57:55;17.58;;;10.35;;
40755;SDS011;26461;45.630;9.418;2023-03-01T01:01:13;16.52;;;10.18;;
40755;SDS011;26461;45.630;9.418;2023-03-01T01:04:28;23.40;;;10.38;;
40755;SDS011;26461;45.630;9.418;2023-03-01T01:07:37;21.05;;;9.63;;
40755;SDS011;26461;45.630;9.418;2023-03-01T01:10:47;16.38;;;9.43;;
40755;SDS011;26461;45.630;9.418;2023-03-01T01:13:57;19.80;;;11.63;;
40755;SDS011;26461;45.630;9.418;2023-03-01T01:17:07;32.97;;;11.43;;
40755;SDS011;26461;45.630;9.418;2023-03-01T01:20:17;18.52;;;8.93;;
40755;SDS011;26461;45.630;9.418;2023-03-01T01:23:27;19.38;;;9.77;;
40755;SDS011;26461;45.630;9.418;2023-03-01T01:26:37;14.70;;;9.05;;
40755;SDS011;26461;45.630;9.418;2023-03-01T01:29:47;20.25;;;11.55;;
40755;SDS011;26461;45.630;9.418;2023-03-01T01:32:57;16.50;;;9.65;;
40755;SDS011;26461;45.630;9.418;2023-03-01T01:36:02;39.47;;;9.95;;
40755;SDS011;26461;45.630;9.418;2023-03-01T01:39:12;16.85;;;10.25;;
40755;SDS011;26461;45.630;9.418;2023-03-01T01:42:23;12.75;;;10.65;;
40755;SDS011;26461;45.630;9.418;2023-03-01T01:45:36;21.90;;;13.20;;
40755;SDS011;26461;45.630;9.418;2023-03-01T01:48:46;13.52;;;8.45;;
40755;SDS011;26461;45.630;9.418;2023-03-01T01:52:07;23.42;;;11.23;;
40755;SDS011;26461;45.630;9.418;2023-03-01T01:55:21;21.13;;;10.65;;
40755;SDS011;26461;45.630;9.418;2023-03-01T01:58:36;18.67;;;12.63;;
40755;SDS011;26461;45.630;9.418;2023-03-01T02:01:47;17.23;;;9.45;;
40755;SDS011;26461;45.630;9.418;2023-03-01T02:05:02;23.63;;;14.52;;
40755;SDS011;26461;45.630;9.418;2023-03-01T02:08:25;23.33;;;10.07;;
40755;SDS011;26461;45.630;9.418;2023-03-01T02:11:37;16.10;;;10.18;;
40755;SDS011;26461;45.630;9.418;2023-03-01T02:14:46;34.85;;;13.13;;
40755;SDS011;26461;45.630;9.418;2023-03-01T02:17:56;15.73;;;11.05;;
40755;SDS011;26461;45.630;9.418;2023-03-01T02:31:16;21.80;;;12.27;;
40755;SDS011;26461;45.630;9.418;2023-03-01T02:34:48;15.90;;;8.55;;
40755;SDS011;26461;45.630;9.418;2023-03-01T02:37:58;12.40;;;8.63;;
40755;SDS011;26461;45.630;9.418;2023-03-01T02:41:10;16.10;;;8.63;;
40755;SDS011;26461;45.630;9.418;2023-03-01T02:44:23;26.10;;;12.88;;
40755;SDS011;26461;45.630;9.418;2023-03-01T02:47:33;23.40;;;11.57;;
40755;SDS011;26461;45.630;9.418;2023-03-01T02:54:22;22.60;;;10.90;;
40755;SDS011;26461;45.630;9.418;2023-03-01T02:57:32;17.15;;;11.77;;
40755;SDS011;26461;45.630;9.418;2023-03-01T03:00:44;20.55;;;9.82;;
40755;SDS011;26461;45.630;9.418;2023-03-01T03:03:56;17.63;;;10.10;;
40755;SDS011;26461;45.630;9.418;2023-03-01T03:07:06;31.45;;;12.82;;
40755;SDS011;26461;45.630;9.418;2023-03-01T03:10:20;28.88;;;12.95;;
40755;SDS011;26461;45.630;9.418;2023-03-01T03:13:39;19.52;;;9.90;;
40755;SDS011;26461;45.630;9.418;2023-03-01T03:16:57;22.75;;;13.00;;
40755;SDS011;26461;45.630;9.418;2023-03-01T03:20:10;23.23;;;14.00;;
40755;SDS011;26461;45.630;9.418;2023-03-01T03:23:21;14.73;;;9.80;;
40755;SDS011;26461;45.630;9.418;2023-03-01T03:26:31;27.15;;;13.55;;
40755;SDS011;26461;45.630;9.418;2023-03-01T03:29:41;24.67;;;13.32;;
40755;SDS011;26461;45.630;9.418;2023-03-01T03:32:51;13.57;;;11.20;;
40755;SDS011;26461;45.630;9.418;2023-03-01T03:36:01;18.08;;;13.13;;
40755;SDS011;26461;45.630;9.418;2023-03-01T03:39:06;13.45;;;11.68;;
40755;SDS011;26461;45.630;9.418;2023-03-01T03:42:16;19.05;;;10.15;;
40755;SDS011;26461;45.630;9.418;2023-03-01T03:45:26;25.73;;;13.82;;
40755;SDS011;26461;45.630;9.418;2023-03-01T03:48:38;24.35;;;10.65;;
40755;SDS011;26461;45.630;9.418;2023-03-01T03:51:49;20.00;;;11.85;;
40755;SDS011;26461;45.630;9.418;2023-03-01T03:54:59;22.05;;;13.57;;
40755;SDS011;26461;45.630;9.418;2023-03-01T03:58:09;20.80;;;10.57;;
40755;SDS011;26461;45.630;9.418;2023-03-01T04:01:20;21.20;;;11.85;;
40755;SDS011;26461;45.630;9.418;2023-03-01T04:04:30;23.30;;;12.70;;
40755;SDS011;26461;45.630;9.418;2023-03-01T04:07:40;18.52;;;11.02;;
40755;SDS011;26461;45.630;9.418;2023-03-01T04:10:52;26.80;;;14.77;;
40755;SDS011;26461;45.630;9.418;2023-03-01T04:14:05;23.77;;;13.70;;
40755;SDS011;26461;45.630;9.418;2023-03-01T04:17:15;16.15;;;9.60;;
40755;SDS011;26461;45.630;9.418;2023-03-01T04:20:26;21.60;;;12.35;;
40755;SDS011;26461;45.630;9.418;2023-03-01T04:23:38;15.57;;;11.77;;
40755;SDS011;26461;45.630;9.418;2023-03-01T04:26:51;29.75;;;12.52;;
40755;SDS011;26461;45.630;9.418;2023-03-01T04:30:01;22.52;;;12.73;;
40755;SDS011;26461;45.630;9.418;2023-03-01T04:33:12;14.77;;;12.40;;
40755;SDS011;26461;45.630;9.418;2023-03-01T04:36:24;21.42;;;10.60;;
40755;SDS011;26461;45.630;9.418;2023-03-01T04:39:35;22.52;;;14.90;;
40755;SDS011;26461;45.630;9.418;2023-03-01T04:42:54;16.48;;;11.60;;
40755;SDS011;26461;45.630;9.418;2023-03-01T04:46:04;10.98;;;10.35;;
40755;SDS011;26461;45.630;9.418;2023-03-01T04:49:18;23.92;;;13.93;;
40755;SDS011;26461;45.630;9.418;2023-03-01T04:52:28;25.75;;;12.32;;
40755;SDS011;26461;45.630;9.418;2023-03-01T04:55:38;21.65;;;12.05;;
40755;SDS011;26461;45.630;9.418;2023-03-01T04:58:48;24.58;;;14.35;;
40755;SDS011;26461;45.630;9.418;2023-03-01T05:01:58;12.45;;;9.90;;
40755;SDS011;26461;45.630;9.418;2023-03-01T05:05:09;18.25;;;15.63;;
40755;SDS011;26461;45.630;9.418;2023-03-01T05:08:19;18.60;;;8.57;;
40755;SDS011;26461;45.630;9.418;2023-03-01T05:11:30;22.65;;;14.93;;
40755;SDS011;26461;45.630;9.418;2023-03-01T05:14:42;20.55;;;13.57;;
40755;SDS011;26461;45.630;9.418;2023-03-01T05:17:48;24.73;;;16.23;;
40755;SDS011;26461;45.630;9.418;2023-03-01T05:21:03;21.10;;;14.43;;
40755;SDS011;26461;45.630;9.418;2023-03-01T05:24:15;26.90;;;15.40;;
40755;SDS011;26461;45.630;9.418;2023-03-01T05:27:25;24.10;;;12.30;;
40755;SDS011;26461;45.630;9.418;2023-03-01T05:30:36;26.23;;;14.25;;
40755;SDS011;26461;45.630;9.418;2023-03-01T05:33:48;25.13;;;10.70;;
40755;SDS011;26461;45.630;9.418;2023-03-01T05:36:58;22.65;;;12.68;;
40755;SDS011;26461;45.630;9.418;2023-03-01T05:40:09;24.70;;;12.15;;
40755;SDS011;26461;45.630;9.418;2023-03-01T05:43:24;17.73;;;16.42;;
40755;SDS011;26461;45.630;9.418;2023-03-01T05:46:29;33.38;;;17.08;;
40755;SDS011;26461;45.630;9.418;2023-03-01T05:49:39;29.05;;;21.42;;
40755;SDS011;26461;45.630;9.418;2023-03-01T05:52:50;54.33;;;29.02;;
40755;SDS011;26461;45.630;9.418;2023-03-01T05:56:02;40.10;;;20.83;;
40755;SDS011;26461;45.630;9.418;2023-03-01T05:59:13;28.08;;;20.35;;
40755;SDS011;26461;45.630;9.418;2023-03-01T06:02:25;29.63;;;18.85;;
40755;SDS011;26461;45.630;9.418;2023-03-01T06:05:36;27.80;;;15.93;;
40755;SDS011;26461;45.630;9.418;2023-03-01T06:08:46;37.85;;;18.73;;
40755;SDS011;26461;45.630;9.418;2023-03-01T06:11:56;28.52;;;15.60;;
40755;SDS011;26461;45.630;9.418;2023-03-01T06:15:06;29.02;;;16.15;;
40755;SDS011;26461;45.630;9.418;2023-03-01T06:18:14;23.38;;;14.48;;
40755;SDS011;26461;45.630;9.418;2023-03-01T06:21:23;26.05;;;16.73;;
40755;SDS011;26461;45.630;9.418;2023-03-01T06:24:34;21.63;;;12.77;;
40755;SDS011;26461;45.630;9.418;2023-03-01T06:27:44;33.58;;;15.55;;
40755;SDS011;26461;45.630;9.418;2023-03-01T06:30:55;19.08;;;16.35;;
40755;SDS011;26461;45.630;9.418;2023-03-01T06:34:05;27.90;;;12.27;;
40755;SDS011;26461;45.630;9.418;2023-03-01T06:37:14;34.58;;;17.50;;
40755;SDS011;26461;45.630;9.418;2023-03-01T06:40:24;25.05;;;14.27;;
40755;SDS011;26461;45.630;9.418;2023-03-01T06:43:34;26.85;;;20.08;;
40755;SDS011;26461;45.630;9.418;2023-03-01T06:46:44;32.22;;;23.27;;
40755;SDS011;26461;45.630;9.418;2023-03-01T06:49:54;33.10;;;21.70;;
40755;SDS011;26461;45.630;9.418;2023-03-01T06:53:04;36.20;;;26.13;;
40755;SDS011;26461;45.630;9.418;2023-03-01T06:56:14;37.70;;;22.48;;
40755;SDS011;26461;45.630;9.418;2023-03-01T06:59:23;41.53;;;26.20;;
40755;SDS011;26461;45.630;9.418;2023-03-01T07:02:33;34.83;;;23.13;;
40755;SDS011;26461;45.630;9.418;2023-03-01T07:05:43;26.08;;;17.80;;
40755;SDS011;26461;45.630;9.418;2023-03-01T07:08:53;22.45;;;21.35;;
40755;SDS011;26461;45.630;9.418;2023-03-01T07:12:03;36.88;;;21.80;;
40755;SDS011;26461;45.630;9.418;2023-03-01T07:15:14;26.33;;;16.77;;
40755;SDS011;26461;45.630;9.418;2023-03-01T07:18:24;30.23;;;19.05;;
40755;SDS011;26461;45.630;9.418;2023-03-01T07:21:34;19.63;;;17.48;;
40755;SDS011;26461;45.630;9.418;2023-03-01T07:24:39;30.00;;;16.33;;
40755;SDS011;26461;45.630;9.418;2023-03-01T07:27:50;49.50;;;23.13;;
40755;SDS011;26461;45.630;9.418;2023-03-01T07:31:02;25.50;;;16.10;;
40755;SDS011;26461;45.630;9.418;2023-03-01T07:34:12;40.80;;;23.80;;
40755;SDS011;26461;45.630;9.418;2023-03-01T07:37:22;37.50;;;21.65;;
40755;SDS011;26461;45.630;9.418;2023-03-01T07:40:32;29.75;;;19.02;;
40755;SDS011;26461;45.630;9.418;2023-03-01T07:43:43;29.17;;;20.33;;
40755;SDS011;26461;45.630;9.418;2023-03-01T07:46:53;29.77;;;15.40;;
40755;SDS011;26461;45.630;9.418;2023-03-01T07:50:05;34.63;;;19.75;;
40755;SDS011;26461;45.630;9.418;2023-03-01T07:53:15;21.52;;;16.00;;
40755;SDS011;26461;45.630;9.418;2023-03-01T07:56:26;21.58;;;13.45;;
40755;SDS011;26461;45.630;9.418;2023-03-01T07:59:36;19.30;;;18.25;;
40755;SDS011;26461;45.630;9.418;2023-03-01T08:02:46;25.73;;;14.90;;
40755;SDS011;26461;45.630;9.418;2023-03-01T08:05:56;24.80;;;15.85;;
40755;SDS011;26461;45.630;9.418;2023-03-01T08:09:08;24.98;;;14.18;;
40755;SDS011;26461;45.630;9.418;2023-03-01T08:12:18;21.17;;;12.52;;
40755;SDS011;26461;45.630;9.418;2023-03-01T08:15:23;33.67;;;15.00;;
40755;SDS011;26461;45.630;9.418;2023-03-01T08:18:32;13.25;;;12.55;;
40755;SDS011;26461;45.630;9.418;2023-03-01T08:21:42;24.73;;;17.05;;
40755;SDS011;26461;45.630;9.418;2023-03-01T08:24:52;19.88;;;16.65;;
40755;SDS011;26461;45.630;9.418;2023-03-01T08:28:04;15.93;;;14.65;;
40755;SDS011;26461;45.630;9.418;2023-03-01T08:34:37;22.60;;;19.13;;
40755;SDS011;26461;45.630;9.418;2023-03-01T08:37:47;22.52;;;17.13;;
40755;SDS011;26461;45.630;9.418;2023-03-01T08:40:59;18.70;;;14.85;;
40755;SDS011;26461;45.630;9.418;2023-03-01T08:44:10;27.48;;;17.98;;
40755;SDS011;26461;45.630;9.418;2023-03-01T08:47:21;25.75;;;19.65;;
40755;SDS011;26461;45.630;9.418;2023-03-01T08:50:32;17.80;;;15.48;;
40755;SDS011;26461;45.630;9.418;2023-03-01T08:53:41;20.33;;;15.30;;
40755;SDS011;26461;45.630;9.418;2023-03-01T08:56:52;18.45;;;11.38;;
40755;SDS011;26461;45.630;9.418;2023-03-01T09:00:02;15.65;;;11.45;;
40755;SDS011;26461;45.630;9.418;2023-03-01T09:03:07;19.10;;;11.98;;
40755;SDS011;26461;45.630;9.418;2023-03-01T09:06:18;11.07;;;10.50;;
40755;SDS011;26461;45.630;9.418;2023-03-01T09:09:28;13.90;;;11.13;;
40755;SDS011;26461;45.630;9.418;2023-03-01T09:12:38;11.02;;;10.43;;
40755;SDS011;26461;45.630;9.418;2023-03-01T09:15:48;11.98;;;8.60;;
40755;SDS011;26461;45.630;9.418;2023-03-01T09:18:58;15.13;;;8.82;;
40755;SDS011;26461;45.630;9.418;2023-03-01T09:22:08;14.07;;;9.85;;
40755;SDS011;26461;45.630;9.418;2023-03-01T09:25:18;16.83;;;11.57;;
40755;SDS011;26461;45.630;9.418;2023-03-01T09:28:28;17.13;;;9.30;;
40755;SDS011;26461;45.630;9.418;2023-03-01T09:31:38;19.15;;;8.98;;
40755;SDS011;26461;45.630;9.418;2023-03-01T09:34:48;28.98;;;13.80;;
40755;SDS011;26461;45.630;9.418;2023-03-01T09:38:09;18.95;;;14.15;;
40755;SDS011;26461;45.630;9.418;2023-03-01T09:41:24;19.95;;;9.95;;
40755;SDS011;26461;45.630;9.418;2023-03-01T09:48:01;18.75;;;12.52;;
40755;SDS011;26461;45.630;9.418;2023-03-01T09:51:17;18.95;;;13.50;;
40755;SDS011;26461;45.630;9.418;2023-03-01T09:54:32;24.50;;;15.73;;
40755;SDS011;26461;45.630;9.418;2023-03-01T09:57:50;12.27;;;10.23;;
40755;SDS011;26461;45.630;9.418;2023-03-01T10:01:27;22.83;;;13.32;;
40755;SDS011;26461;45.630;9.418;2023-03-01T10:04:45;29.88;;;12.15;;
40755;SDS011;26461;45.630;9.418;2023-03-01T10:11:31;26.50;;;18.02;;
40755;SDS011;26461;45.630;9.418;2023-03-01T10:18:25;22.80;;;15.68;;
40755;SDS011;26461;45.630;9.418;2023-03-01T10:21:39;22.48;;;15.77;;
40755;SDS011;26461;45.630;9.418;2023-03-01T10:24:55;29.05;;;15.63;;
40755;SDS011;26461;45.630;9.418;2023-03-01T10:28:10;30.48;;;21.23;;
40755;SDS011;26461;45.630;9.418;2023-03-01T10:31:29;26.88;;;16.48;;
40755;SDS011;26461;45.630;9.418;2023-03-01T10:34:52;27.73;;;16.60;;
40755;SDS011;26461;45.630;9.418;2023-03-01T10:38:08;28.70;;;16.92;;
40755;SDS011;26461;45.630;9.418;2023-03-01T10:41:22;21.30;;;13.00;;
40755;SDS011;26461;45.630;9.418;2023-03-01T10:44:44;28.42;;;15.95;;
40755;SDS011;26461;45.630;9.418;2023-03-01T10:48:03;33.60;;;19.48;;
40755;SDS011;26461;45.630;9.418;2023-03-01T10:51:30;29.90;;;16.23;;
40755;SDS011;26461;45.630;9.418;2023-03-01T10:54:35;32.65;;;17.60;;
40755;SDS011;26461;45.630;9.418;2023-03-01T10:57:46;25.52;;;13.68;;
40755;SDS011;26461;45.630;9.418;2023-03-01T11:00:57;26.90;;;19.70;;
40755;SDS011;26461;45.630;9.418;2023-03-01T11:04:10;28.98;;;14.95;;
40755;SDS011;26461;45.630;9.418;2023-03-01T11:07:22;27.40;;;17.13;;
40755;SDS011;26461;45.630;9.418;2023-03-01T11:10:34;27.67;;;13.73;;
40755;SDS011;26461;45.630;9.418;2023-03-01T11:13:53;37.28;;;16.35;;
40755;SDS011;26461;45.630;9.418;2023-03-01T11:17:15;47.08;;;21.02;;
40755;SDS011;26461;45.630;9.418;2023-03-01T11:20:39;22.75;;;15.88;;
40755;SDS011;26461;45.630;9.418;2023-03-01T11:23:45;25.08;;;17.90;;
40755;SDS011;26461;45.630;9.418;2023-03-01T11:26:55;29.63;;;15.98;;
40755;SDS011;26461;45.630;9.418;2023-03-01T11:30:19;20.42;;;14.50;;
40755;SDS011;26461;45.630;9.418;2023-03-01T11:36:56;21.98;;;11.90;;
40755;SDS011;26461;45.630;9.418;2023-03-01T11:40:22;28.52;;;18.20;;
40755;SDS011;26461;45.630;9.418;2023-03-01T11:43:33;28.48;;;17.38;;
40755;SDS011;26461;45.630;9.418;2023-03-01T11:47:16;25.13;;;17.20;;
40755;SDS011;26461;45.630;9.418;2023-03-01T11:51:01;25.08;;;15.30;;
40755;SDS011;26461;45.630;9.418;2023-03-01T11:54:21;22.75;;;11.95;;
40755;SDS011;26461;45.630;9.418;2023-03-01T12:08:32;28.70;;;14.15;;
40755;SDS011;26461;45.630;9.418;2023-03-01T12:11:57;29.98;;;18.33;;
40755;SDS011;26461;45.630;9.418;2023-03-01T12:18:50;22.67;;;12.68;;
40755;SDS011;26461;45.630;9.418;2023-03-01T12:22:30;26.90;;;13.60;;
40755;SDS011;26461;45.630;9.418;2023-03-01T12:25:45;23.42;;;12.73;;
40755;SDS011;26461;45.630;9.418;2023-03-01T12:36:29;28.40;;;12.40;;
40755;SDS011;26461;45.630;9.418;2023-03-01T12:50:41;26.85;;;12.52;;
40755;SDS011;26461;45.630;9.418;2023-03-01T12:53:50;17.50;;;12.93;;
40755;SDS011;26461;45.630;9.418;2023-03-01T13:00:52;21.95;;;10.85;;
40755;SDS011;26461;45.630;9.418;2023-03-01T13:08:19;25.40;;;13.38;;
40755;SDS011;26461;45.630;9.418;2023-03-01T13:11:32;34.75;;;14.13;;
40755;SDS011;26461;45.630;9.418;2023-03-01T13:14:44;20.63;;;14.55;;
40755;SDS011;26461;45.630;9.418;2023-03-01T13:21:07;21.42;;;10.85;;
40755;SDS011;26461;45.630;9.418;2023-03-01T13:24:35;26.25;;;15.15;;
40755;SDS011;26461;45.630;9.418;2023-03-01T13:27:48;24.13;;;13.60;;
40755;SDS011;26461;45.630;9.418;2023-03-01T13:30:58;17.10;;;11.63;;
40755;SDS011;26461;45.630;9.418;2023-03-01T13:34:38;32.88;;;14.23;;
40755;SDS011;26461;45.630;9.418;2023-03-01T13:37:52;15.95;;;13.10;;
40755;SDS011;26461;45.630;9.418;2023-03-01T13:44:53;23.08;;;11.55;;
40755;SDS011;26461;45.630;9.418;2023-03-01T13:48:26;33.67;;;17.17;;
40755;SDS011;26461;45.630;9.418;2023-03-01T13:51:39;24.38;;;15.70;;
40755;SDS011;26461;45.630;9.418;2023-03-01T13:54:48;27.00;;;13.30;;
40755;SDS011;26461;45.630;9.418;2023-03-01T13:58:00;27.48;;;14.07;;
40755;SDS011;26461;45.630;9.418;2023-03-01T14:01:20;23.92;;;11.00;;
40755;SDS011;26461;45.630;9.418;2023-03-01T14:04:33;21.55;;;12.30;;
40755;SDS011;26461;45.630;9.418;2023-03-01T14:07:50;21.23;;;10.93;;
40755;SDS011;26461;45.630;9.418;2023-03-01T14:14:39;24.50;;;13.20;;
40755;SDS011;26461;45.630;9.418;2023-03-01T14:18:10;21.25;;;14.13;;
40755;SDS011;26461;45.630;9.418;2023-03-01T14:21:30;18.42;;;11.88;;
40755;SDS011;26461;45.630;9.418;2023-03-01T14:24:44;18.58;;;10.75;;
40755;SDS011;26461;45.630;9.418;2023-03-01T14:28:16;13.93;;;10.13;;
40755;SDS011;26461;45.630;9.418;2023-03-01T14:34:48;19.83;;;15.07;;
40755;SDS011;26461;45.630;9.418;2023-03-01T14:38:00;23.20;;;12.88;;
40755;SDS011;26461;45.630;9.418;2023-03-01T14:41:11;30.83;;;13.85;;
40755;SDS011;26461;45.630;9.418;2023-03-01T14:44:25;28.42;;;15.80;;
40755;SDS011;26461;45.630;9.418;2023-03-01T14:47:35;24.60;;;10.50;;
40755;SDS011;26461;45.630;9.418;2023-03-01T14:50:47;18.30;;;8.13;;
40755;SDS011;26461;45.630;9.418;2023-03-01T14:53:59;28.88;;;14.93;;
40755;SDS011;26461;45.630;9.418;2023-03-01T14:57:12;23.30;;;10.90;;
40755;SDS011;26461;45.630;9.418;2023-03-01T15:00:27;35.60;;;14.60;;
40755;SDS011;26461;45.630;9.418;2023-03-01T15:03:44;24.27;;;15.75;;
40755;SDS011;26461;45.630;9.418;2023-03-01T15:06:56;27.50;;;14.73;;
40755;SDS011;26461;45.630;9.418;2023-03-01T15:10:16;22.95;;;12.75;;
40755;SDS011;26461;45.630;9.418;2023-03-01T15:13:32;24.08;;;11.15;;
40755;SDS011;26461;45.630;9.418;2023-03-01T15:16:43;13.20;;;8.70;;
40755;SDS011;26461;45.630;9.418;2023-03-01T15:19:53;33.83;;;17.27;;
40755;SDS011;26461;45.630;9.418;2023-03-01T15:23:03;22.77;;;11.30;;
40755;SDS011;26461;45.630;9.418;2023-03-01T15:26:21;23.13;;;11.20;;
40755;SDS011;26461;45.630;9.418;2023-03-01T15:29:39;37.60;;;15.73;;
40755;SDS011;26461;45.630;9.418;2023-03-01T15:33:15;21.25;;;13.85;;
40755;SDS011;26461;45.630;9.418;2023-03-01T15:36:30;15.50;;;9.70;;
40755;SDS011;26461;45.630;9.418;2023-03-01T15:39:55;18.10;;;12.50;;
40755;SDS011;26461;45.630;9.418;2023-03-01T15:43:13;20.98;;;13.05;;
40755;SDS011;26461;45.630;9.418;2023-03-01T15:46:49;30.70;;;12.73;;
40755;SDS011;26461;45.630;9.418;2023-03-01T15:49:59;13.40;;;9.43;;
40755;SDS011;26461;45.630;9.418;2023-03-01T15:53:10;22.52;;;12.35;;
40755;SDS011;26461;45.630;9.418;2023-03-01T15:56:23;23.67;;;11.43;;
40755;SDS011;26461;45.630;9.418;2023-03-01T15:59:33;28.20;;;14.65;;
40755;SDS011;26461;45.630;9.418;2023-03-01T16:02:43;31.38;;;15.80;;
40755;SDS011;26461;45.630;9.418;2023-03-01T16:05:53;16.25;;;7.72;;
40755;SDS011;26461;45.630;9.418;2023-03-01T16:09:03;14.80;;;11.95;;
40755;SDS011;26461;45.630;9.418;2023-03-01T16:12:14;38.13;;;13.80;;
40755;SDS011;26461;45.630;9.418;2023-03-01T16:15:26;19.80;;;15.93;;
40755;SDS011;26461;45.630;9.418;2023-03-01T16:18:41;24.25;;;12.13;;
40755;SDS011;26461;45.630;9.418;2023-03-01T16:21:51;27.98;;;18.02;;
40755;SDS011;26461;45.630;9.418;2023-03-01T16:25:01;26.15;;;13.82;;
40755;SDS011;26461;45.630;9.418;2023-03-01T16:28:12;11.88;;;11.25;;
40755;SDS011;26461;45.630;9.418;2023-03-01T16:31:24;19.48;;;11.85;;
40755;SDS011;26461;45.630;9.418;2023-03-01T16:34:36;27.27;;;12.05;;
40755;SDS011;26461;45.630;9.418;2023-03-01T16:37:47;24.35;;;13.43;;
40755;SDS011;26461;45.630;9.418;2023-03-01T16:40:59;26.23;;;16.67;;
40755;SDS011;26461;45.630;9.418;2023-03-01T16:44:09;23.35;;;14.77;;
40755;SDS011;26461;45.630;9.418;2023-03-01T16:47:19;24.65;;;18.80;;
40755;SDS011;26461;45.630;9.418;2023-03-01T16:50:29;25.20;;;11.80;;
40755;SDS011;26461;45.630;9.418;2023-03-01T16:53:39;15.93;;;13.40;;
40755;SDS011;26461;45.630;9.418;2023-03-01T16:56:50;24.17;;;15.45;;
40755;SDS011;26461;45.630;9.418;2023-03-01T17:00:00;23.23;;;14.45;;
40755;SDS011;26461;45.630;9.418;2023-03-01T17:03:17;32.45;;;14.98;;
40755;SDS011;26461;45.630;9.418;2023-03-01T17:06:28;17.83;;;14.05;;
40755;SDS011;26461;45.630;9.418;2023-03-01T17:09:38;22.85;;;12.65;;
40755;SDS011;26461;45.630;9.418;2023-03-01T17:12:48;22.90;;;12.15;;
40755;SDS011;26461;45.630;9.418;2023-03-01T17:15:59;13.18;;;10.88;;
40755;SDS011;26461;45.630;9.418;2023-03-01T17:19:09;21.65;;;14.15;;
40755;SDS011;26461;45.630;9.418;2023-03-01T17:22:21;32.95;;;15.15;;
40755;SDS011;26461;45.630;9.418;2023-03-01T17:25:31;28.45;;;12.65;;
40755;SDS011;26461;45.630;9.418;2023-03-01T17:28:41;39.72;;;12.27;;
40755;SDS011;26461;45.630;9.418;2023-03-01T17:31:53;22.42;;;15.98;;
40755;SDS011;26461;45.630;9.418;2023-03-01T17:35:05;32.00;;;15.57;;
40755;SDS011;26461;45.630;9.418;2023-03-01T17:38:15;23.73;;;17.38;;
40755;SDS011;26461;45.630;9.418;2023-03-01T17:41:26;25.02;;;14.10;;
40755;SDS011;26461;45.630;9.418;2023-03-01T17:44:36;18.20;;;13.38;;
40755;SDS011;26461;45.630;9.418;2023-03-01T17:47:41;18.52;;;14.48;;
40755;SDS011;26461;45.630;9.418;2023-03-01T17:50:51;18.15;;;13.07;;
40755;SDS011;26461;45.630;9.418;2023-03-01T17:53:56;22.50;;;10.90;;
40755;SDS011;26461;45.630;9.418;2023-03-01T17:57:07;25.92;;;16.67;;
40755;SDS011;26461;45.630;9.418;2023-03-01T18:00:17;14.18;;;12.30;;
40755;SDS011;26461;45.630;9.418;2023-03-01T18:03:27;18.38;;;14.60;;
40755;SDS011;26461;45.630;9.418;2023-03-01T18:06:37;27.63;;;18.20;;
40755;SDS011;26461;45.630;9.418;2023-03-01T18:09:49;18.15;;;10.88;;
40755;SDS011;26461;45.630;9.418;2023-03-01T18:12:59;20.83;;;10.35;;
40755;SDS011;26461;45.630;9.418;2023-03-01T18:16:10;25.95;;;12.95;;
40755;SDS011;26461;45.630;9.418;2023-03-01T18:19:21;23.20;;;11.10;;
40755;SDS011;26461;45.630;9.418;2023-03-01T18:22:31;30.90;;;13.10;;
40755;SDS011;26461;45.630;9.418;2023-03-01T18:25:41;23.83;;;12.75;;
40755;SDS011;26461;45.630;9.418;2023-03-01T18:28:47;20.55;;;14.27;;
40755;SDS011;26461;45.630;9.418;2023-03-01T18:31:59;21.13;;;10.60;;
40755;SDS011;26461;45.630;9.418;2023-03-01T18:35:09;18.52;;;10.70;;
40755;SDS011;26461;45.630;9.418;2023-03-01T18:38:19;30.95;;;17.35;;
40755;SDS011;26461;45.630;9.418;2023-03-01T18:41:29;16.95;;;11.38;;
40755;SDS011;26461;45.630;9.418;2023-03-01T18:44:39;13.93;;;9.57;;
40755;SDS011;26461;45.630;9.418;2023-03-01T18:47:49;18.70;;;10.13;;
40755;SDS011;26461;45.630;9.418;2023-03-01T18:51:06;16.58;;;8.80;;
40755;SDS011;26461;45.630;9.418;2023-03-01T18:54:19;13.82;;;8.93;;
40755;SDS011;26461;45.630;9.418;2023-03-01T18:57:29;17.73;;;8.45;;
40755;SDS011;26461;45.630;9.418;2023-03-01T19:00:39;19.98;;;9.02;;
40755;SDS011;26461;45.630;9.418;2023-03-01T19:03:49;15.80;;;8.75;;
40755;SDS011;26461;45.630;9.418;2023-03-01T19:07:00;20.83;;;8.75;;
40755;SDS011;26461;45.630;9.418;2023-03-01T19:10:10;17.48;;;10.63;;
40755;SDS011;26461;45.630;9.418;2023-03-01T19:13:20;23.67;;;10.60;;
40755;SDS011;26461;45.630;9.418;2023-03-01T19:16:31;11.73;;;9.85;;
40755;SDS011;26461;45.630;9.418;2023-03-01T19:19:41;16.00;;;9.80;;
40755;SDS011;26461;45.630;9.418;2023-03-01T19:22:51;14.98;;;9.02;;
40755;SDS011;26461;45.630;9.418;2023-03-01T19:26:02;12.70;;;7.07;;
40755;SDS011;26461;45.630;9.418;2023-03-01T19:29:16;11.80;;;6.18;;
40755;SDS011;26461;45.630;9.418;2023-03-01T19:32:26;17.55;;;8.45;;
40755;SDS011;26461;45.630;9.418;2023-03-01T19:35:32;14.20;;;8.32;;
40755;SDS011;26461;45.630;9.418;2023-03-01T19:38:42;18.23;;;9.48;;
40755;SDS011;26461;45.630;9.418;2023-03-01T19:41:52;21.88;;;9.10;;
40755;SDS011;26461;45.630;9.418;2023-03-01T19:45:02;17.67;;;4.60;;
40755;SDS011;26461;45.630;9.418;2023-03-01T19:48:12;18.13;;;7.00;;
40755;SDS011;26461;45.630;9.418;2023-03-01T19:51:22;15.55;;;7.13;;
40755;SDS011;26461;45.630;9.418;2023-03-01T19:54:32;8.98;;;4.50;;
40755;SDS011;26461;45.630;9.418;2023-03-01T19:57:42;11.25;;;6.30;;
40755;SDS011;26461;45.630;9.418;2023-03-01T20:00:52;5.55;;;3.45;;
40755;SDS011;26461;45.630;9.418;2023-03-01T20:04:04;12.20;;;4.38;;
40755;SDS011;26461;45.630;9.418;2023-03-01T20:07:14;8.30;;;7.10;;
40755;SDS011;26461;45.630;9.418;2023-03-01T20:10:24;15.85;;;4.57;;
40755;SDS011;26461;45.630;9.418;2023-03-01T20:13:36;8.95;;;5.40;;